Time;durP1;ratioP1;P1;durP2;ratioP2;P2;SDS_P1;SDS_P2;PMS_P1;PMS_P2;Temp;Humidity;BMP_temperature;BMP_pressure;BME280_temperature;BME280_humidity;BME280_pressure;Samples;Min_cycle;Max_cycle;Signal;HPM_P1;HPM_P2
2021/11/03 00:00:39;;;;;;;10.10;8.32;;;;;;;4.84;100.00;99440.19;5014682;28;20103;-56
2021/11/03 00:03:06;;;;;;;11.93;8.63;;;;;;;4.97;100.00;99432.94;5014713;28;20029;-52
2021/11/03 00:05:32;;;;;;;9.77;8.65;;;;;;;4.82;100.00;99439.31;5016152;28;20042;-55
2021/11/03 00:08:00;;;;;;;11.05;8.73;;;;;;;5.04;100.00;99440.78;5013611;28;20053;-54
2021/11/03 00:10:26;;;;;;;14.95;9.88;;;;;;;4.75;100.00;99447.56;5016809;28;20063;-52
2021/11/03 00:12:52;;;;;;;12.45;8.68;;;;;;;4.72;100.00;99442.41;5012920;28;20120;-55
2021/11/03 00:15:18;;;;;;;12.98;10.02;;;;;;;4.50;100.00;99437.53;5013746;28;20044;-54
2021/11/03 00:17:44;;;;;;;10.52;8.82;;;;;;;4.56;100.00;99435.16;5015431;28;20042;-53
2021/11/03 00:20:12;;;;;;;12.65;9.38;;;;;;;4.54;100.00;99442.72;5015112;28;20033;-52
2021/11/03 00:22:38;;;;;;;11.20;8.63;;;;;;;4.58;100.00;99446.22;5013891;28;20415;-53
2021/11/03 00:25:05;;;;;;;11.75;9.57;;;;;;;4.55;100.00;99443.59;5016230;28;20041;-51
2021/11/03 00:27:31;;;;;;;13.50;9.43;;;;;;;4.60;100.00;99454.72;5013242;28;20034;-53
2021/11/03 00:29:56;;;;;;;13.50;9.10;;;;;;;4.54;100.00;99444.41;5016101;28;20099;-54
2021/11/03 00:32:23;;;;;;;11.00;8.27;;;;;;;5.30;100.00;99451.63;5013908;28;20057;-51
2021/11/03 00:34:49;;;;;;;9.45;8.43;;;;;;;4.80;100.00;99447.69;5014789;28;20037;-50
2021/11/03 00:37:15;;;;;;;13.80;9.02;;;;;;;4.58;100.00;99447.09;5014818;28;20097;-51
2021/11/03 00:39:42;;;;;;;13.02;8.63;;;;;;;4.47;100.00;99447.56;5016777;28;20029;-54
2021/11/03 00:42:08;;;;;;;10.38;9.15;;;;;;;4.33;100.00;99450.53;5016720;28;20026;-55
2021/11/03 00:44:34;;;;;;;13.07;8.05;;;;;;;4.41;100.00;99440.66;5013075;28;20038;-55
2021/11/03 00:47:00;;;;;;;10.38;8.73;;;;;;;4.60;100.00;99447.97;5016128;28;20034;-56
2021/11/03 00:49:25;;;;;;;9.13;8.07;;;;;;;4.70;100.00;99449.09;5013552;28;20026;-54
2021/11/03 00:51:51;;;;;;;12.75;9.05;;;;;;;5.29;100.00;99442.28;5015204;28;20060;-53
2021/11/03 00:54:17;;;;;;;11.23;8.40;;;;;;;5.37;100.00;99447.59;5013736;28;20038;-51
2021/11/03 00:56:43;;;;;;;9.65;8.02;;;;;;;5.21;100.00;99455.59;5014323;28;20501;-54
2021/11/03 00:59:09;;;;;;;13.77;9.02;;;;;;;5.36;100.00;99451.81;5015073;28;20037;-54
2021/11/03 01:01:35;;;;;;;11.57;8.70;;;;;;;5.20;100.00;99451.34;5013517;28;20066;-51
2021/11/03 01:04:01;;;;;;;10.80;8.63;;;;;;;5.23;100.00;99447.22;5012286;28;20029;-51
2021/11/03 01:06:26;;;;;;;10.43;8.88;;;;;;;5.51;100.00;99447.94;5012215;28;20494;-54
2021/11/03 01:08:52;;;;;;;12.88;9.43;;;;;;;5.28;100.00;99449.88;5016354;28;20040;-53
2021/11/03 01:11:18;;;;;;;12.18;9.95;;;;;;;5.14;100.00;99446.09;5013243;28;20128;-54
2021/11/03 01:13:44;;;;;;;11.60;9.13;;;;;;;5.53;100.00;99446.28;5014591;28;20049;-54
2021/11/03 01:16:09;;;;;;;11.85;9.35;;;;;;;5.51;100.00;99437.78;5014103;28;20037;-55
2021/11/03 01:18:35;;;;;;;13.63;9.65;;;;;;;5.39;100.00;99440.00;5014063;28;20393;-55
2021/11/03 01:21:02;;;;;;;12.35;9.98;;;;;;;5.28;100.00;99443.13;5015499;28;20030;-54
2021/11/03 01:23:29;;;;;;;12.88;9.40;;;;;;;4.95;100.00;99438.00;5012755;28;20042;-54
2021/11/03 01:25:56;;;;;;;10.63;9.35;;;;;;;4.93;100.00;99437.06;5012104;28;20050;-53
2021/11/03 01:28:21;;;;;;;11.80;9.85;;;;;;;5.07;100.00;99437.44;5015574;28;20441;-54
2021/11/03 01:30:47;;;;;;;11.88;8.60;;;;;;;4.95;100.00;99443.06;5013346;28;20038;-51
2021/11/03 01:33:15;;;;;;;10.25;8.57;;;;;;;4.57;100.00;99442.81;5017579;28;20030;-55
2021/11/03 01:35:41;;;;;;;10.82;8.82;;;;;;;4.31;100.00;99438.66;5019909;28;20041;-54
2021/11/03 01:38:07;;;;;;;12.68;9.15;;;;;;;4.01;100.00;99441.94;5017167;28;20359;-53
2021/11/03 01:40:37;;;;;;;15.13;9.35;;;;;;;3.98;100.00;99441.00;5019482;28;20494;-54
2021/11/03 01:43:03;;;;;;;17.65;11.00;;;;;;;3.81;100.00;99438.78;5019576;28;20080;-53
2021/11/03 01:45:30;;;;;;;13.07;10.95;;;;;;;3.96;100.00;99440.06;5016373;28;20046;-53
2021/11/03 01:47:59;;;;;;;14.13;10.38;;;;;;;3.91;100.00;99439.94;5018148;28;20171;-56
2021/11/03 01:50:32;;;;;;;12.25;10.32;;;;;;;4.01;100.00;99443.63;5018132;28;21571;-53
2021/11/03 01:53:21;;;;;;;12.45;9.98;;;;;;;3.90;100.00;99428.09;5016015;28;20060;-52
2021/11/03 01:56:01;;;;;;;11.23;8.57;;;;;;;3.80;100.00;99429.47;5015867;28;20333;-53
2021/11/03 01:58:50;;;;;;;15.05;9.90;;;;;;;3.60;100.00;99433.00;5017497;28;20410;-53
2021/11/03 02:01:16;;;;;;;13.50;9.48;;;;;;;3.39;100.00;99428.09;5019049;28;20112;-53
2021/11/03 02:03:42;;;;;;;15.18;9.15;;;;;;;3.35;100.00;99431.34;5017380;28;20052;-54
2021/11/03 02:06:17;;;;;;;13.80;10.75;;;;;;;3.18;100.00;99434.94;5016560;28;20038;-55
2021/11/03 02:08:45;;;;;;;12.18;9.77;;;;;;;3.25;100.00;99435.22;5020018;28;20107;-55
2021/11/03 02:11:12;;;;;;;15.57;10.20;;;;;;;3.10;100.00;99426.22;5017751;28;20044;-55
2021/11/03 02:13:39;;;;;;;12.27;8.98;;;;;;;3.22;100.00;99434.25;5015073;28;20029;-54
2021/11/03 02:16:08;;;;;;;12.52;9.18;;;;;;;3.23;100.00;99438.50;5019324;28;20129;-55
2021/11/03 02:18:35;;;;;;;11.70;8.68;;;;;;;3.92;100.00;99438.25;5019135;28;20041;-55
2021/11/03 02:21:02;;;;;;;11.40;8.23;;;;;;;3.87;100.00;99444.84;5019128;28;20445;-57
2021/11/03 02:23:38;;;;;;;13.55;9.77;;;;;;;3.46;100.00;99434.22;5015017;28;20075;-52
2021/11/03 02:26:10;;;;;;;13.60;8.32;;;;;;;3.27;100.00;99441.19;5017597;28;20115;-52
2021/11/03 02:28:38;;;;;;;13.90;9.13;;;;;;;3.29;100.00;99432.00;5014941;28;20053;-54
2021/11/03 02:31:04;;;;;;;12.77;8.80;;;;;;;3.13;100.00;99437.31;5018435;28;20037;-52
2021/11/03 02:33:31;;;;;;;14.77;8.82;;;;;;;3.04;100.00;99435.31;5016162;28;20033;-52
2021/11/03 02:36:05;;;;;;;11.90;8.75;;;;;;;3.01;100.00;99435.22;5016734;28;20374;-54
2021/11/03 02:38:42;;;;;;;11.80;9.68;;;;;;;2.88;100.00;99430.53;5018531;28;20042;-51
2021/11/03 02:41:20;;;;;;;12.07;8.65;;;;;;;2.98;100.00;99434.25;5016263;28;20065;-54
2021/11/03 02:43:51;;;;;;;12.55;9.15;;;;;;;2.71;100.00;99434.13;5014539;28;20087;-56
2021/11/03 02:46:18;;;;;;;12.90;8.48;;;;;;;3.09;100.00;99424.50;5015655;28;20037;-52
2021/11/03 02:48:45;;;;;;;11.18;9.40;;;;;;;3.04;100.00;99429.41;5017129;28;20037;-54
2021/11/03 02:51:15;;;;;;;10.25;7.88;;;;;;;3.14;100.00;99431.44;5016869;28;20169;-54
2021/11/03 02:53:47;;;;;;;11.75;9.02;;;;;;;2.86;100.00;99429.59;5018485;28;20029;-56
2021/11/03 02:56:15;;;;;;;11.13;9.00;;;;;;;2.68;100.00;99429.84;5019201;28;20087;-52
2021/11/03 02:58:41;;;;;;;15.05;9.90;;;;;;;2.58;100.00;99424.38;5020043;28;20092;-53
2021/11/03 03:01:19;;;;;;;18.30;9.43;;;;;;;2.59;100.00;99423.56;5017522;28;20099;-52
2021/11/03 03:03:46;;;;;;;17.40;10.15;;;;;;;2.57;100.00;99431.09;5018464;28;20042;-56
2021/11/03 03:06:19;;;;;;;18.02;10.35;;;;;;;2.51;100.00;99424.16;5017610;28;20044;-52
2021/11/03 03:08:46;;;;;;;13.75;8.93;;;;;;;3.22;100.00;99432.56;5018300;28;20112;-52
2021/11/03 03:11:11;;;;;;;16.98;8.55;;;;;;;3.31;100.00;99429.50;5016889;28;20079;-51
2021/11/03 03:13:38;;;;;;;37.60;10.45;;;;;;;3.23;100.00;99433.44;5014901;28;20029;-54
2021/11/03 03:16:04;;;;;;;39.97;9.65;;;;;;;3.52;100.00;99434.44;5018476;28;20048;-53
2021/11/03 03:18:29;;;;;;;33.13;8.68;;;;;;;3.34;100.00;99427.09;5014678;28;20502;-54
2021/11/03 03:20:55;;;;;;;134.98;14.23;;;;;;;2.80;100.00;99417.63;5017415;28;20091;-51
2021/11/03 03:23:21;;;;;;;71.60;10.95;;;;;;;2.86;100.00;99427.09;5015129;28;20117;-56
2021/11/03 03:25:47;;;;;;;21.27;9.30;;;;;;;2.65;100.00;99427.19;5016052;28;20045;-52
2021/11/03 03:28:15;;;;;;;66.40;12.27;;;;;;;2.77;100.00;99419.16;5015996;28;20483;-53
2021/11/03 03:30:41;;;;;;;42.42;10.27;;;;;;;2.61;100.00;99422.81;5014950;28;20117;-56
2021/11/03 03:33:06;;;;;;;37.17;9.15;;;;;;;2.87;100.00;99421.25;5017089;28;20116;-53
2021/11/03 03:35:32;;;;;;;11.23;8.30;;;;;;;3.16;100.00;99424.78;5014472;28;20033;-55
2021/11/03 03:37:58;;;;;;;28.38;8.63;;;;;;;3.76;100.00;99437.78;5017483;28;20041;-54
2021/11/03 03:40:24;;;;;;;22.45;9.10;;;;;;;3.53;100.00;99437.00;5014379;28;20046;-54
2021/11/03 03:42:49;;;;;;;38.17;9.35;;;;;;;3.40;100.00;99444.16;5016280;28;20087;-53
2021/11/03 03:45:15;;;;;;;38.00;9.82;;;;;;;3.14;100.00;99449.16;5014860;28;20778;-51
2021/11/03 03:47:42;;;;;;;26.65;8.50;;;;;;;3.24;100.00;99452.88;5015526;28;20029;-53
2021/11/03 03:50:09;;;;;;;32.00;9.57;;;;;;;3.80;100.00;99461.53;5016193;28;20052;-55
2021/11/03 03:52:35;;;;;;;42.80;10.63;;;;;;;3.61;100.00;99460.06;5014584;28;20621;-53
2021/11/03 03:55:01;;;;;;;50.15;10.82;;;;;;;3.67;100.00;99464.47;5016709;28;20914;-54
2021/11/03 03:57:27;;;;;;;35.45;11.25;;;;;;;3.53;100.00;99474.97;5027828;28;20077;-52
2021/11/03 03:59:53;;;;;;;19.92;9.68;;;;;;;3.48;100.00;99484.09;5014413;28;20596;-52
2021/11/03 04:02:18;;;;;;;19.35;10.18;;;;;;;3.34;100.00;99482.75;5016056;28;20035;-54
2021/11/03 04:04:44;;;;;;;25.73;10.80;;;;;;;3.53;100.00;99481.72;5014952;28;20038;-56
2021/11/03 04:07:09;;;;;;;15.88;11.05;;;;;;;3.57;100.00;99475.94;5015004;28;20245;-55
2021/11/03 04:09:35;;;;;;;17.27;10.68;;;;;;;3.18;100.00;99478.81;5016066;28;20035;-57
2021/11/03 04:12:01;;;;;;;15.75;11.23;;;;;;;3.55;100.00;99470.81;5014139;28;20029;-51
2021/11/03 04:14:26;;;;;;;20.33;12.02;;;;;;;3.54;100.00;99480.91;5019950;28;20171;-57
2021/11/03 04:16:52;;;;;;;20.85;13.52;;;;;;;3.69;100.00;99478.00;5013094;28;20119;-54
2021/11/03 04:19:18;;;;;;;22.75;14.43;;;;;;;3.66;100.00;99481.31;5016655;28;20029;-55
2021/11/03 04:21:43;;;;;;;18.10;12.50;;;;;;;3.28;100.00;99482.50;5017134;28;20572;-55
2021/11/03 04:24:09;;;;;;;15.73;11.60;;;;;;;3.62;100.00;99486.22;5014126;28;20030;-54
2021/11/03 04:26:40;;;;;;;19.00;11.52;;;;;;;3.58;100.00;99498.78;5015268;28;20501;-54
2021/11/03 04:29:06;;;;;;;16.90;11.48;;;;;;;3.52;100.00;99496.03;5015972;28;20040;-54
2021/11/03 04:31:32;;;;;;;14.52;9.77;;;;;;;3.10;100.00;99494.50;5013677;28;20025;-55
2021/11/03 04:33:57;;;;;;;16.13;10.95;;;;;;;3.32;100.00;99490.25;5016599;28;20494;-55
2021/11/03 04:36:23;;;;;;;14.88;11.05;;;;;;;3.33;100.00;99488.63;5016384;28;20071;-55
2021/11/03 04:38:52;;;;;;;14.63;10.70;;;;;;;3.57;100.00;99494.53;5016518;28;20140;-54
2021/11/03 04:41:18;;;;;;;22.48;12.05;;;;;;;3.67;100.00;99499.91;5012563;28;20091;-52
2021/11/03 04:43:46;;;;;;;15.13;11.65;;;;;;;3.73;100.00;99492.50;5014631;28;20073;-56
2021/11/03 04:46:12;;;;;;;17.67;12.00;;;;;;;3.40;100.00;99498.13;5016348;28;20037;-52
2021/11/03 04:48:38;;;;;;;18.08;12.00;;;;;;;3.19;100.00;99497.38;5013034;28;20033;-50
2021/11/03 04:51:04;;;;;;;21.88;12.57;;;;;;;2.89;100.00;99494.59;5016668;28;20686;-51
2021/11/03 04:53:29;;;;;;;20.73;12.32;;;;;;;3.49;100.00;99495.06;5013495;28;20045;-56
2021/11/03 04:55:57;;;;;;;18.90;12.75;;;;;;;3.30;100.00;99502.00;5015812;28;20061;-55
2021/11/03 04:58:23;;;;;;;18.75;12.32;;;;;;;2.88;100.00;99508.06;5016273;28;20497;-51
2021/11/03 05:00:49;;;;;;;16.65;10.55;;;;;;;3.09;100.00;99505.44;5014523;28;20041;-52
2021/11/03 05:03:15;;;;;;;14.98;10.73;;;;;;;3.08;100.00;99507.09;5013452;28;20394;-53
2021/11/03 05:05:40;;;;;;;18.63;13.43;;;;;;;2.70;100.00;99498.97;5015156;28;20033;-53
2021/11/03 05:08:06;;;;;;;19.75;12.77;;;;;;;2.47;100.00;99487.13;5015325;28;20102;-52
2021/11/03 05:10:32;;;;;;;24.33;13.13;;;;;;;2.63;100.00;99491.94;5006199;28;20116;-51
2021/11/03 05:12:58;;;;;;;25.27;13.65;;;;;;;2.56;100.00;99492.53;5028931;28;20040;-52
2021/11/03 05:15:23;;;;;;;21.48;13.60;;;;;;;2.59;100.00;99485.09;5016714;28;20044;-53
2021/11/03 05:17:50;;;;;;;20.60;14.27;;;;;;;2.55;100.00;99491.69;5018615;28;20051;-54
2021/11/03 05:20:17;;;;;;;19.35;13.32;;;;;;;2.74;100.00;99483.13;5018105;28;20072;-53
2021/11/03 05:22:43;;;;;;;22.58;12.55;;;;;;;2.95;100.00;99499.88;5018089;28;20397;-55
2021/11/03 05:25:10;;;;;;;15.10;10.18;;;;;;;3.24;100.00;99496.75;5018317;28;20099;-50
2021/11/03 05:27:36;;;;;;;16.02;10.45;;;;;;;3.15;100.00;99487.97;5016330;28;20498;-55
2021/11/03 05:30:03;;;;;;;16.05;10.85;;;;;;;3.18;100.00;99496.50;5019582;28;20048;-54
2021/11/03 05:32:29;;;;;;;16.23;11.10;;;;;;;2.80;100.00;99495.13;5016569;28;20030;-52
2021/11/03 05:34:54;;;;;;;15.73;10.98;;;;;;;2.57;100.00;99496.78;5015880;28;20127;-56
2021/11/03 05:37:20;;;;;;;18.83;12.35;;;;;;;2.31;100.00;99490.72;5017863;28;20061;-54
2021/11/03 05:39:46;;;;;;;18.38;12.18;;;;;;;2.34;100.00;99490.84;5019118;28;20045;-53
2021/11/03 05:42:12;;;;;;;18.42;11.48;;;;;;;2.26;100.00;99490.53;5019995;28;20116;-53
2021/11/03 05:44:38;;;;;;;17.80;11.68;;;;;;;2.16;100.00;99490.97;5018357;28;20550;-52
2021/11/03 05:47:05;;;;;;;20.10;12.15;;;;;;;2.15;100.00;99486.72;5015750;28;20510;-50
2021/11/03 05:49:33;;;;;;;19.75;11.48;;;;;;;2.15;100.00;99489.25;5019088;28;20518;-52
2021/11/03 05:52:02;;;;;;;17.00;11.45;;;;;;;2.27;100.00;99486.38;5016384;28;20061;-54
2021/11/03 05:54:28;;;;;;;19.38;11.93;;;;;;;2.34;100.00;99488.31;5016875;28;20036;-55
2021/11/03 05:56:57;;;;;;;13.45;9.98;;;;;;;2.34;100.00;99492.50;5018840;28;20038;-53
2021/11/03 05:59:23;;;;;;;16.83;10.40;;;;;;;2.92;100.00;99495.59;5019596;28;20037;-59
2021/11/03 06:01:49;;;;;;;15.60;10.88;;;;;;;3.47;100.00;99496.69;5018549;28;20034;-53
2021/11/03 06:04:15;;;;;;;17.83;10.75;;;;;;;3.39;100.00;99503.16;5020678;28;20033;-57
2021/11/03 06:06:41;;;;;;;16.67;10.23;;;;;;;3.54;100.00;99503.66;5018245;28;20037;-55
2021/11/03 06:09:09;;;;;;;15.73;10.68;;;;;;;3.28;100.00;99501.13;5019879;28;20037;-54
2021/11/03 06:11:41;;;;;;;20.88;11.70;;;;;;;3.01;100.00;99513.63;5018604;28;20034;-56
2021/11/03 06:14:07;;;;;;;19.77;11.40;;;;;;;3.58;100.00;99511.44;5017513;28;20042;-54
2021/11/03 06:16:33;;;;;;;16.58;11.35;;;;;;;3.48;100.00;99506.00;5020627;28;20033;-53
2021/11/03 06:18:59;;;;;;;15.77;10.98;;;;;;;3.61;100.00;99514.88;5016000;28;20041;-53
2021/11/03 06:21:24;;;;;;;17.15;11.35;;;;;;;3.81;100.00;99519.78;5017411;28;20064;-57
2021/11/03 06:23:50;;;;;;;16.95;11.38;;;;;;;3.95;100.00;99516.88;5016511;28;20137;-57
2021/11/03 06:26:19;;;;;;;16.90;12.50;;;;;;;3.79;100.00;99518.00;5020015;28;20068;-56
2021/11/03 06:28:45;;;;;;;18.05;12.80;;;;;;;3.79;100.00;99515.47;5020261;28;20038;-57
2021/11/03 06:31:11;;;;;;;17.35;12.13;;;;;;;3.80;100.00;99513.03;5019109;28;20121;-57
2021/11/03 06:33:37;;;;;;;18.10;11.82;;;;;;;4.06;100.00;99521.47;5016867;28;20658;-58
2021/11/03 06:36:05;;;;;;;21.80;13.02;;;;;;;3.85;100.00;99519.91;5016188;28;20458;-55
2021/11/03 06:38:31;;;;;;;17.88;11.93;;;;;;;4.34;100.00;99527.41;5019844;28;20040;-56
2021/11/03 06:40:57;;;;;;;18.52;12.40;;;;;;;4.37;100.00;99540.19;5017762;28;20503;-55
2021/11/03 06:43:23;;;;;;;17.65;11.45;;;;;;;4.29;100.00;99546.69;5018346;28;20117;-54
2021/11/03 06:45:49;;;;;;;16.17;12.40;;;;;;;4.54;100.00;99551.72;5019572;28;20056;-59
2021/11/03 06:48:15;;;;;;;16.38;12.32;;;;;;;4.63;100.00;99550.31;5017168;28;20038;-55
2021/11/03 06:50:40;;;;;;;21.13;12.98;;;;;;;4.56;100.00;99554.31;5019674;28;20914;-55
2021/11/03 06:53:10;;;;;;;16.98;11.82;;;;;;;4.73;100.00;99567.50;5016052;28;20491;-57
2021/11/03 06:55:37;;;;;;;18.83;12.70;;;;;;;4.68;100.00;99574.13;5018787;28;20045;-52
2021/11/03 06:58:04;;;;;;;17.63;12.55;;;;;;;4.73;100.00;99572.59;5017495;28;20038;-57
2021/11/03 07:00:34;;;;;;;22.05;13.95;;;;;;;4.45;100.00;99571.72;5018088;28;20041;-54
2021/11/03 07:03:00;;;;;;;18.58;13.73;;;;;;;4.57;100.00;99577.16;5019339;28;20168;-56
2021/11/03 07:05:28;;;;;;;21.38;13.50;;;;;;;4.37;100.00;99574.81;5015912;28;20033;-55
2021/11/03 07:07:53;;;;;;;16.17;12.73;;;;;;;4.40;100.00;99577.47;5019381;28;20135;-57
2021/11/03 07:10:26;;;;;;;19.88;12.80;;;;;;;4.78;100.00;99587.13;5017084;28;20636;-58
2021/11/03 07:12:51;;;;;;;18.20;13.15;;;;;;;5.37;100.00;99579.56;5017857;28;20034;-59
2021/11/03 07:15:18;;;;;;;17.83;13.32;;;;;;;4.39;100.00;99578.25;5018817;28;20025;-57
2021/11/03 07:17:44;;;;;;;21.08;13.85;;;;;;;4.62;100.00;99587.44;5015993;28;20062;-58
2021/11/03 07:20:10;;;;;;;17.55;12.15;;;;;;;5.11;100.00;99591.50;5015729;28;20058;-57
2021/11/03 07:22:36;;;;;;;15.77;11.38;;;;;;;5.19;100.00;99590.03;5016320;28;20103;-57
2021/11/03 07:25:01;;;;;;;15.98;12.10;;;;;;;5.59;100.00;99581.00;5018399;28;20049;-57
2021/11/03 07:27:27;;;;;;;16.75;12.65;;;;;;;5.17;100.00;99578.13;5017352;28;20124;-56
2021/11/03 07:29:53;;;;;;;14.60;11.43;;;;;;;5.73;100.00;99579.72;5017896;28;20770;-55
2021/11/03 07:32:18;;;;;;;15.25;11.38;;;;;;;5.40;100.00;99577.09;5023721;28;20401;-56
2021/11/03 07:34:44;;;;;;;18.60;12.20;;;;;;;5.48;100.00;99580.72;5022657;28;20492;-57
2021/11/03 07:37:10;;;;;;;16.90;10.82;;;;;;;5.89;100.00;99581.00;5017032;28;20046;-56
2021/11/03 07:39:35;;;;;;;17.05;11.55;;;;;;;6.26;100.00;99587.91;5024044;28;20120;-54
2021/11/03 07:42:02;;;;;;;18.30;11.38;;;;;;;6.27;100.00;99593.84;5028577;28;20033;-53
2021/11/03 07:44:28;;;;;;;20.15;12.38;;;;;;;5.84;100.00;99592.72;5025120;28;20041;-55
2021/11/03 07:46:53;;;;;;;17.40;11.43;;;;;;;6.27;100.00;99599.78;5026009;28;20033;-57
2021/11/03 07:49:26;;;;;;;16.95;12.40;;;;;;;6.40;100.00;99600.09;5021889;28;20107;-55
2021/11/03 07:51:52;;;;;;;18.75;12.20;;;;;;;6.50;100.00;99604.59;5023102;28;20042;-57
2021/11/03 07:54:18;;;;;;;19.67;12.63;;;;;;;6.51;100.00;99606.31;5024607;28;20045;-58
2021/11/03 07:56:44;;;;;;;16.45;11.70;;;;;;;6.40;100.00;99605.19;5020964;28;20048;-59
2021/11/03 07:59:10;;;;;;;16.35;10.98;;;;;;;6.31;100.00;99611.75;5024334;28;20033;-57
2021/11/03 08:01:37;;;;;;;18.02;11.32;;;;;;;6.56;100.00;99609.81;5020440;28;20045;-55
2021/11/03 08:04:02;;;;;;;16.17;11.77;;;;;;;6.55;100.00;99615.72;5020958;28;20092;-57
2021/11/03 08:06:28;;;;;;;17.58;11.43;;;;;;;6.68;100.00;99615.22;5019403;28;20148;-54
2021/11/03 08:11:30;;;;;;;16.80;12.50;;;;;;;6.94;100.00;99620.06;5016198;28;20041;-56
2021/11/03 08:13:55;;;;;;;14.43;11.27;;;;;;;6.97;100.00;99622.66;5018585;28;20034;-56
2021/11/03 08:16:21;;;;;;;15.93;12.23;;;;;;;6.64;100.00;99615.94;5021546;28;20106;-54
2021/11/03 08:18:47;;;;;;;16.20;12.52;;;;;;;6.94;100.00;99617.50;5018962;28;20456;-57
2021/11/03 08:21:15;;;;;;;16.95;11.40;;;;;;;6.98;100.00;99615.06;5021986;28;20037;-58
2021/11/03 08:23:41;;;;;;;14.18;11.38;;;;;;;7.25;100.00;99608.84;5018768;28;20044;-55
2021/11/03 08:26:07;;;;;;;15.05;11.35;;;;;;;7.80;100.00;99615.94;5020981;28;20409;-58
2021/11/03 08:28:33;;;;;;;14.45;11.20;;;;;;;8.00;100.00;99623.13;5021646;28;20806;-58
2021/11/03 08:30:59;;;;;;;17.13;11.20;;;;;;;7.57;100.00;99625.66;5019880;28;20049;-55
2021/11/03 08:33:46;;;;;;;15.38;11.57;;;;;;;7.42;100.00;99625.34;5018631;28;20068;-55
2021/11/03 08:36:14;;;;;;;13.95;11.40;;;;;;;7.62;100.00;99633.41;5017677;28;20488;-53
2021/11/03 08:38:40;;;;;;;14.23;11.35;;;;;;;8.11;100.00;99626.72;5016173;28;20099;-57
2021/11/03 08:41:06;;;;;;;12.07;10.60;;;;;;;8.43;100.00;99627.31;5014563;28;20128;-54
2021/11/03 08:43:35;;;;;;;14.82;11.40;;;;;;;7.73;100.00;99626.84;5012942;28;20029;-54
2021/11/03 08:46:06;;;;;;;14.50;11.48;;;;;;;7.49;100.00;99629.75;5016178;28;20041;-59
2021/11/03 08:48:32;;;;;;;15.73;11.50;;;;;;;7.60;100.00;99629.97;5014405;28;20107;-59
2021/11/03 08:50:57;;;;;;;13.57;11.30;;;;;;;7.58;100.00;99621.41;5017439;28;20033;-57
2021/11/03 08:53:23;;;;;;;15.20;11.55;;;;;;;8.07;100.00;99625.78;5014721;28;20029;-56
2021/11/03 08:55:54;;;;;;;15.63;12.25;;;;;;;7.69;100.00;99626.75;5016901;28;20064;-54
2021/11/03 08:58:23;;;;;;;15.30;12.57;;;;;;;7.88;100.00;99628.81;5016665;28;20034;-55
2021/11/03 09:00:51;;;;;;;12.07;10.10;;;;;;;8.67;100.00;99635.38;5014761;28;20049;-56
2021/11/03 09:03:17;;;;;;;12.65;10.07;;;;;;;8.71;100.00;99636.28;5014507;28;20034;-54
2021/11/03 09:05:42;;;;;;;12.25;10.82;;;;;;;8.87;100.00;99633.16;5016828;28;20052;-55
2021/11/03 09:08:09;;;;;;;11.68;10.27;;;;;;;8.46;100.00;99639.25;5015350;28;20374;-56
2021/11/03 09:10:45;;;;;;;12.85;10.45;;;;;;;8.83;100.00;99627.97;5015615;28;20088;-57
2021/11/03 09:13:11;;;;;;;10.85;9.43;;;;;;;8.47;100.00;99634.19;5016955;28;20029;-58
2021/11/03 09:15:36;;;;;;;11.88;8.68;;;;;;;8.98;100.00;99627.34;5017214;28;20048;-55
2021/11/03 09:18:02;;;;;;;12.15;9.38;;;;;;;9.12;100.00;99625.84;5013806;28;20044;-58
2021/11/03 09:20:28;;;;;;;11.15;9.23;;;;;;;8.70;100.00;99623.50;5015989;28;20472;-58
2021/11/03 09:22:53;;;;;;;13.95;10.20;;;;;;;8.42;100.00;99620.50;5014746;28;20042;-53
2021/11/03 09:25:22;;;;;;;12.10;9.27;;;;;;;9.13;100.00;99617.34;5014922;28;20136;-55
2021/11/03 09:27:49;;;;;;;13.40;10.90;;;;;;;8.13;100.00;99617.38;5015604;28;20033;-55
2021/11/03 09:30:20;;;;;;;13.52;10.80;;;;;;;8.25;100.00;99607.41;5013718;28;20117;-52
2021/11/03 09:32:47;;;;;;;17.55;11.20;;;;;;;7.98;100.00;99612.03;5016779;28;20133;-55
2021/11/03 09:35:13;;;;;;;18.30;11.98;;;;;;;7.74;100.00;99608.19;5014158;28;20065;-56
2021/11/03 09:37:40;;;;;;;14.25;11.85;;;;;;;7.77;100.00;99598.06;5015209;28;20049;-55
2021/11/03 09:40:10;;;;;;;13.93;10.82;;;;;;;8.43;100.00;99601.81;5015669;28;20038;-59
2021/11/03 09:42:37;;;;;;;14.15;10.50;;;;;;;8.21;100.00;99605.63;5013889;28;20038;-58
2021/11/03 09:45:29;;;;;;;12.90;10.15;;;;;;;8.83;100.00;99610.97;5016685;28;20472;-57
2021/11/03 09:47:57;;;;;;;11.27;10.00;;;;;;;8.72;100.00;99609.06;5016363;28;20091;-58
2021/11/03 09:50:25;;;;;;;11.70;9.35;;;;;;;10.09;100.00;99610.00;5014213;28;20442;-58
2021/11/03 09:52:57;;;;;;;11.40;8.80;;;;;;;9.39;100.00;99615.16;5015362;28;20107;-54
2021/11/03 09:55:34;;;;;;;12.05;8.55;;;;;;;9.84;100.00;99607.16;5018006;28;20108;-57
2021/11/03 09:58:21;;;;;;;10.32;8.45;;;;;;;10.65;100.00;99617.34;5016940;28;20038;-56
2021/11/03 10:00:52;;;;;;;10.05;8.52;;;;;;;9.21;100.00;99617.47;5019598;28;20413;-52
2021/11/03 10:03:40;;;;;;;11.35;8.93;;;;;;;8.96;100.00;99617.09;5017498;28;20375;-56
2021/11/03 10:06:18;;;;;;;10.77;8.50;;;;;;;9.42;100.00;99616.03;5018930;28;20045;-55
2021/11/03 10:08:47;;;;;;;11.68;7.75;;;;;;;10.09;100.00;99613.41;5019073;28;20044;-56
2021/11/03 10:11:30;;;;;;;8.52;7.43;;;;;;;9.69;100.00;99619.78;5019483;28;20183;-56
2021/11/03 10:13:58;;;;;;;8.23;6.95;;;;;;;10.05;100.00;99621.88;5022041;28;20413;-55
2021/11/03 10:16:39;;;;;;;9.65;8.05;;;;;;;9.51;100.00;99607.63;5019296;28;20030;-53
2021/11/03 10:19:14;;;;;;;7.90;7.10;;;;;;;9.69;100.00;99614.66;5016582;28;20041;-57
2021/11/03 10:25:21;;;;;;;9.75;7.97;;;;;;;9.35;100.00;99609.13;5018790;28;20613;-54
2021/11/03 10:27:58;;;;;;;9.00;7.57;;;;;;;9.48;100.00;99610.16;5018955;28;20735;-59
2021/11/03 10:30:47;;;;;;;10.63;7.47;;;;;;;10.73;100.00;99607.19;5017194;28;20029;-58
2021/11/03 10:33:24;;;;;;;10.38;7.57;;;;;;;10.33;100.00;99605.13;5018057;28;20057;-58
2021/11/03 10:36:00;;;;;;;13.18;8.63;;;;;;;10.20;100.00;99610.94;5018914;28;20155;-58
2021/11/03 10:38:38;;;;;;;9.95;6.95;;;;;;;11.64;100.00;99620.50;5018605;28;20033;-56
2021/11/03 10:41:13;;;;;;;11.20;8.70;;;;;;;11.56;100.00;99624.75;5018399;28;20038;-59
2021/11/03 10:43:42;;;;;;;7.93;6.82;;;;;;;12.80;100.00;99629.31;5016109;28;20123;-55
2021/11/03 10:46:27;;;;;;;8.70;6.60;;;;;;;14.37;90.63;99626.19;5015630;28;20044;-58
2021/11/03 10:49:23;;;;;;;7.00;5.93;;;;;;;15.71;87.04;99628.41;5016066;28;20045;-57
2021/11/03 10:51:58;;;;;;;6.80;6.10;;;;;;;16.45;77.25;99629.06;5017299;28;20034;-56
2021/11/03 10:54:37;;;;;;;6.63;5.93;;;;;;;17.15;72.84;99634.00;5018084;28;20041;-56
2021/11/03 10:57:18;;;;;;;6.88;4.85;;;;;;;16.85;75.19;99619.88;5017387;28;20272;-56
2021/11/03 10:59:51;;;;;;;5.68;5.28;;;;;;;17.25;72.08;99613.09;5018354;28;20040;-55
2021/11/03 11:02:24;;;;;;;7.78;5.57;;;;;;;16.63;73.23;99622.78;5017173;28;20510;-57
2021/11/03 11:04:50;;;;;;;5.80;5.20;;;;;;;17.53;71.61;99615.16;5014125;28;20089;-58
2021/11/03 11:07:32;;;;;;;6.70;4.90;;;;;;;17.60;68.22;99615.88;5015388;28;20053;-56
2021/11/03 11:10:35;;;;;;;4.90;4.45;;;;;;;17.46;67.76;99616.16;5016302;28;20034;-58
2021/11/03 11:13:03;;;;;;;5.03;4.53;;;;;;;21.47;53.85;99625.91;5018602;28;20524;-55
2021/11/03 11:15:37;;;;;;;5.45;4.80;;;;;;;19.98;57.94;99622.94;5016575;28;20125;-58
2021/11/03 11:18:34;;;;;;;4.95;4.50;;;;;;;18.15;62.71;99612.13;5014270;28;20042;-55
2021/11/03 11:21:08;;;;;;;5.45;4.80;;;;;;;17.31;69.37;99609.53;5017442;28;20621;-55
2021/11/03 11:23:42;;;;;;;5.47;4.20;;;;;;;16.51;72.37;99604.91;5015744;28;20095;-57
2021/11/03 11:26:15;;;;;;;4.30;3.95;;;;;;;19.26;61.61;99606.78;5014026;28;20108;-57
2021/11/03 11:28:51;;;;;;;5.05;4.63;;;;;;;16.97;69.42;99598.97;5018040;28;20037;-58
2021/11/03 11:32:01;;;;;;;5.80;4.40;;;;;;;17.73;64.66;99596.63;5017606;28;20030;-56
2021/11/03 11:34:42;;;;;;;4.55;4.25;;;;;;;17.42;67.33;99604.16;4925492;29;20175;-57